Time;durP1;ratioP1;P1;durP2;ratioP2;P2;SDS_P1;SDS_P2;PMS_P1;PMS_P2;Temp;Humidity;BMP_temperature;BMP_pressure;BME280_temperature;BME280_humidity;BME280_pressure;Samples;Min_cycle;Max_cycle;Signal;HPM_P1;HPM_P2
2023/06/19 00:00:30;;;;;;;30.90;14.48;;;16.00;99.90;;;;;;4979887;28;20142;-83
2023/06/19 00:02:56;;;;;;;32.20;14.55;;;16.00;99.90;;;;;;4979552;28;20051;-82
2023/06/19 00:05:25;;;;;;;36.85;15.43;;;16.00;99.90;;;;;;4978816;28;20050;-82
2023/06/19 00:07:51;;;;;;;34.92;15.02;;;15.90;99.90;;;;;;4963467;28;20148;-82
2023/06/19 00:10:18;;;;;;;29.65;14.45;;;15.90;99.90;;;;;;4995822;28;20046;-81
2023/06/19 00:12:45;;;;;;;32.13;14.30;;;16.00;99.90;;;;;;4978951;28;20042;-82
2023/06/19 00:15:14;;;;;;;31.88;15.13;;;16.00;99.90;;;;;;4996236;28;20043;-82
2023/06/19 00:17:41;;;;;;;31.58;14.82;;;16.00;99.90;;;;;;4978856;28;20038;-83
2023/06/19 00:20:08;;;;;;;33.33;15.95;;;16.10;99.90;;;;;;4979472;28;20082;-82
2023/06/19 00:22:35;;;;;;;29.77;14.63;;;16.10;99.90;;;;;;4979347;28;20483;-82
2023/06/19 00:25:03;;;;;;;37.92;15.23;;;16.20;99.90;;;;;;4962331;28;20451;-81
2023/06/19 00:27:30;;;;;;;33.53;15.43;;;16.20;99.90;;;;;;4977930;28;20754;-82
2023/06/19 00:30:01;;;;;;;30.48;13.85;;;16.30;99.90;;;;;;4978356;28;20540;-82
2023/06/19 00:32:28;;;;;;;27.67;13.80;;;16.30;99.90;;;;;;4995360;28;20104;-83
2023/06/19 00:34:57;;;;;;;30.20;13.85;;;16.30;99.90;;;;;;4994862;28;20100;-83
2023/06/19 00:37:25;;;;;;;27.85;13.48;;;16.40;99.90;;;;;;4978239;28;20133;-83
2023/06/19 00:39:52;;;;;;;27.92;13.52;;;16.40;99.90;;;;;;4978899;28;20119;-82
2023/06/19 00:42:19;;;;;;;25.77;12.43;;;16.40;99.90;;;;;;4995121;28;20105;-83
2023/06/19 00:47:33;;;;;;;29.95;13.40;;;16.40;99.90;;;;;;4995796;28;20508;-83
2023/06/19 00:49:59;;;;;;;30.38;12.95;;;16.40;99.90;;;;;;4995073;28;20045;-83
2023/06/19 00:52:26;;;;;;;28.27;12.88;;;16.40;99.90;;;;;;4994149;28;20109;-82
2023/06/19 00:54:53;;;;;;;30.60;13.63;;;16.40;99.90;;;;;;4978318;28;20046;-84
2023/06/19 00:57:20;;;;;;;31.27;12.88;;;16.50;99.90;;;;;;4994059;28;20050;-83
2023/06/19 00:59:47;;;;;;;33.55;12.93;;;16.50;99.90;;;;;;4995617;28;20046;-82
2023/06/19 01:02:13;;;;;;;33.78;13.95;;;16.50;99.90;;;;;;4978544;28;20057;-82
2023/06/19 01:04:41;;;;;;;27.15;13.02;;;16.40;99.90;;;;;;4992029;28;20050;-82
2023/06/19 01:07:09;;;;;;;34.83;13.50;;;16.40;99.90;;;;;;4994595;28;20050;-84
2023/06/19 01:09:36;;;;;;;28.08;12.85;;;16.40;99.90;;;;;;4995529;28;20045;-84
2023/06/19 01:12:02;;;;;;;26.33;13.23;;;16.40;99.90;;;;;;4993788;28;20050;-82
2023/06/19 01:17:00;;;;;;;28.98;13.65;;;16.40;99.90;;;;;;4994762;28;20030;-82
2023/06/19 01:19:27;;;;;;;28.35;12.27;;;16.40;99.90;;;;;;5010863;28;20042;-83
2023/06/19 01:21:55;;;;;;;28.75;12.38;;;16.50;99.90;;;;;;5010736;28;20046;-83
2023/06/19 01:27:09;;;;;;;25.73;11.65;;;16.50;99.90;;;;;;4995425;28;20440;-83
2023/06/19 01:29:37;;;;;;;29.27;13.23;;;16.50;99.90;;;;;;4994431;28;20046;-83
2023/06/19 01:32:04;;;;;;;26.45;12.18;;;16.50;99.90;;;;;;4993503;28;20476;-83
2023/06/19 01:37:16;;;;;;;27.13;12.02;;;16.40;99.90;;;;;;4994456;28;20050;-83
2023/06/19 01:39:43;;;;;;;24.80;11.18;;;16.40;99.90;;;;;;5010982;28;20042;-84
2023/06/19 01:42:11;;;;;;;29.33;12.43;;;16.30;99.90;;;;;;4994255;28;20140;-83
2023/06/19 01:47:25;;;;;;;29.42;12.77;;;16.20;99.90;;;;;;4995749;28;20043;-83
2023/06/19 01:49:52;;;;;;;26.15;10.82;;;16.20;99.90;;;;;;4994233;28;20049;-84
2023/06/19 01:52:19;;;;;;;28.67;12.30;;;16.10;99.90;;;;;;4993331;28;20065;-83
2023/06/19 01:54:46;;;;;;;20.90;10.48;;;16.10;99.90;;;;;;4994147;28;20077;-84
2023/06/19 01:57:13;;;;;;;24.25;11.23;;;16.10;99.90;;;;;;4993481;28;20038;-83
2023/06/19 01:59:40;;;;;;;24.83;11.43;;;16.00;99.90;;;;;;5010581;28;20366;-83
2023/06/19 02:02:07;;;;;;;27.45;11.65;;;15.90;99.90;;;;;;4995099;28;20184;-85
2023/06/19 02:04:36;;;;;;;25.73;10.88;;;15.90;99.90;;;;;;4993093;28;20058;-83
2023/06/19 02:07:02;;;;;;;26.08;11.80;;;15.90;99.90;;;;;;4994262;28;20053;-83
2023/06/19 02:09:29;;;;;;;26.58;11.68;;;15.80;99.90;;;;;;5010318;28;20397;-84
2023/06/19 02:11:56;;;;;;;27.45;11.88;;;15.70;99.90;;;;;;4993134;28;20081;-84
2023/06/19 02:14:26;;;;;;;25.08;11.27;;;15.70;99.90;;;;;;4994715;28;20066;-84
2023/06/19 02:16:53;;;;;;;24.55;10.07;;;15.70;99.90;;;;;;4994017;28;20053;-83
2023/06/19 02:19:20;;;;;;;26.90;10.80;;;15.70;99.90;;;;;;4993107;28;20096;-83
2023/06/19 02:21:48;;;;;;;24.83;10.60;;;15.60;99.90;;;;;;4994508;28;20050;-83
2023/06/19 02:24:16;;;;;;;23.05;10.20;;;15.60;99.90;;;;;;4992928;28;20076;-82
2023/06/19 02:26:43;;;;;;;25.17;10.80;;;15.50;99.90;;;;;;4994171;28;20073;-83
2023/06/19 02:29:10;;;;;;;28.20;11.38;;;15.50;99.90;;;;;;4993819;28;20053;-83
2023/06/19 02:31:37;;;;;;;22.67;9.77;;;15.50;99.90;;;;;;5009379;28;20046;-83
2023/06/19 02:34:04;;;;;;;21.65;9.98;;;15.40;99.90;;;;;;4993653;28;20053;-83
2023/06/19 02:36:31;;;;;;;22.33;9.35;;;15.40;99.90;;;;;;5011341;28;20487;-83
2023/06/19 02:38:58;;;;;;;22.27;9.82;;;15.40;99.90;;;;;;4997510;28;20461;-83
2023/06/19 02:41:25;;;;;;;20.55;9.02;;;15.40;99.90;;;;;;4998423;28;20050;-84
2023/06/19 02:43:52;;;;;;;25.60;10.50;;;15.40;99.90;;;;;;4996287;28;20042;-82
2023/06/19 02:46:21;;;;;;;21.92;9.77;;;15.40;99.90;;;;;;4997204;28;20047;-83
2023/06/19 02:48:48;;;;;;;24.95;10.02;;;15.40;99.90;;;;;;4997113;28;20050;-83
2023/06/19 02:51:15;;;;;;;22.35;8.93;;;15.40;99.90;;;;;;4997246;28;20038;-83
2023/06/19 02:53:43;;;;;;;23.83;8.60;;;15.40;99.90;;;;;;4997838;28;20041;-84
2023/06/19 02:58:57;;;;;;;22.08;8.38;;;15.40;99.90;;;;;;4996293;28;20043;-84
2023/06/19 03:01:24;;;;;;;25.30;8.82;;;15.40;99.90;;;;;;4996963;28;20069;-82
2023/06/19 03:03:52;;;;;;;18.60;8.02;;;15.30;99.90;;;;;;5012047;28;20396;-83
2023/06/19 03:06:20;;;;;;;20.33;7.40;;;15.40;99.90;;;;;;4997721;28;20515;-82
2023/06/19 03:08:47;;;;;;;21.98;8.43;;;15.30;99.90;;;;;;5013336;28;20050;-82
2023/06/19 03:11:14;;;;;;;18.45;7.88;;;15.30;99.90;;;;;;4995897;28;20046;-84
2023/06/19 03:13:41;;;;;;;18.45;7.93;;;15.40;99.90;;;;;;4996528;28;20038;-83
2023/06/19 03:18:56;;;;;;;23.90;7.88;;;15.20;99.90;;;;;;4995882;28;20100;-83
2023/06/19 03:21:23;;;;;;;19.95;8.40;;;15.20;99.90;;;;;;4996532;28;20034;-82
2023/06/19 03:23:51;;;;;;;22.90;8.65;;;15.20;99.90;;;;;;4995512;28;20125;-82
2023/06/19 03:26:22;;;;;;;18.85;7.93;;;15.10;99.90;;;;;;4996471;28;20052;-84
2023/06/19 03:28:49;;;;;;;19.02;7.57;;;15.10;99.90;;;;;;4997595;28;20413;-84
2023/06/19 03:31:15;;;;;;;17.75;7.97;;;15.10;99.90;;;;;;4995579;28;20046;-82
2023/06/19 03:33:43;;;;;;;22.27;9.20;;;15.00;99.90;;;;;;4996141;28;20070;-84
2023/06/19 03:36:12;;;;;;;29.15;9.35;;;15.10;99.90;;;;;;4996320;28;20548;-83
2023/06/19 03:38:49;;;;;;;19.52;8.93;;;15.00;99.90;;;;;;5011788;28;20069;-82
2023/06/19 03:41:19;;;;;;;22.90;9.35;;;15.00;99.90;;;;;;4996192;28;20056;-83
2023/06/19 03:43:46;;;;;;;22.45;9.75;;;15.00;99.90;;;;;;4995349;28;20104;-82
2023/06/19 03:48:45;;;;;;;23.15;9.57;;;14.90;99.90;;;;;;4994963;28;20042;-82
2023/06/19 03:51:12;;;;;;;23.42;9.77;;;15.00;99.90;;;;;;4995364;28;20457;-83
2023/06/19 03:53:38;;;;;;;24.70;9.75;;;15.00;99.90;;;;;;4995688;28;20046;-84
2023/06/19 03:56:06;;;;;;;20.48;9.80;;;14.90;99.90;;;;;;4996430;28;20049;-82
2023/06/19 03:58:33;;;;;;;29.42;9.90;;;14.90;99.90;;;;;;4995033;28;20460;-83
2023/06/19 04:01:01;;;;;;;24.13;8.82;;;15.00;99.90;;;;;;4996769;28;20545;-84
2023/06/19 04:03:27;;;;;;;23.00;10.05;;;14.90;99.90;;;;;;4995377;28;20527;-83
2023/06/19 04:05:56;;;;;;;24.38;9.75;;;14.90;99.90;;;;;;5011284;28;20085;-83
2023/06/19 04:08:22;;;;;;;25.63;10.00;;;14.90;99.90;;;;;;5011824;28;20046;-83
2023/06/19 04:10:49;;;;;;;24.63;10.60;;;14.90;99.90;;;;;;4995948;28;20100;-83
2023/06/19 04:13:16;;;;;;;25.65;10.20;;;14.90;99.90;;;;;;4995466;28;20051;-83
2023/06/19 04:15:44;;;;;;;24.40;9.80;;;14.90;99.90;;;;;;4995839;28;20421;-83
2023/06/19 04:18:14;;;;;;;24.15;10.48;;;14.90;99.90;;;;;;4994820;28;20046;-83
2023/06/19 04:20:40;;;;;;;24.88;9.77;;;15.00;99.90;;;;;;5011807;28;20077;-83
2023/06/19 04:23:07;;;;;;;25.83;9.95;;;15.00;99.90;;;;;;4995172;28;20053;-82
2023/06/19 04:25:36;;;;;;;24.33;9.65;;;15.00;99.90;;;;;;4994596;28;20528;-83
2023/06/19 04:28:03;;;;;;;27.02;10.15;;;15.00;99.90;;;;;;4996525;28;20098;-82
2023/06/19 04:30:30;;;;;;;23.92;10.07;;;15.00;99.90;;;;;;4995477;28;20049;-83
2023/06/19 04:32:57;;;;;;;23.27;9.73;;;15.10;99.90;;;;;;4996457;28;20470;-83
2023/06/19 04:35:26;;;;;;;23.88;10.07;;;15.10;99.90;;;;;;4996186;28;20038;-83
2023/06/19 04:37:53;;;;;;;24.63;9.38;;;15.10;99.90;;;;;;4995307;28;20134;-81
2023/06/19 04:40:19;;;;;;;20.15;8.48;;;15.20;99.90;;;;;;4995995;28;20120;-83
2023/06/19 04:42:46;;;;;;;23.08;9.80;;;15.20;99.90;;;;;;4995081;28;20066;-81
2023/06/19 04:45:14;;;;;;;24.50;10.30;;;15.30;99.90;;;;;;4994977;28;20050;-83
2023/06/19 04:47:44;;;;;;;27.83;9.35;;;15.30;99.90;;;;;;4995940;28;20042;-83
2023/06/19 04:50:19;;;;;;;25.92;10.48;;;15.30;99.90;;;;;;4995077;28;20046;-81
2023/06/19 04:52:50;;;;;;;32.70;11.15;;;15.30;99.90;;;;;;4994850;28;20038;-82
2023/06/19 04:58:02;;;;;;;28.13;10.48;;;15.40;99.90;;;;;;4994045;28;20074;-82
2023/06/19 05:00:29;;;;;;;24.55;10.57;;;15.40;99.90;;;;;;4995405;28;20101;-82
2023/06/19 05:02:59;;;;;;;29.48;11.10;;;15.50;99.90;;;;;;5010694;28;20205;-83
2023/06/19 05:05:26;;;;;;;28.08;9.95;;;15.50;99.90;;;;;;4994837;28;20121;-81
2023/06/19 05:07:53;;;;;;;27.13;10.30;;;15.50;99.90;;;;;;5011073;28;20042;-82
2023/06/19 05:10:20;;;;;;;29.35;11.32;;;15.60;99.90;;;;;;4994618;28;20038;-81
2023/06/19 05:12:47;;;;;;;27.33;11.32;;;15.60;99.90;;;;;;4994879;28;20520;-83
2023/06/19 05:15:15;;;;;;;32.45;10.90;;;15.70;99.90;;;;;;4995287;28;20043;-83
2023/06/19 05:17:42;;;;;;;27.52;10.45;;;15.80;99.90;;;;;;4993836;28;20376;-82
2023/06/19 05:20:09;;;;;;;26.15;10.25;;;15.80;99.90;;;;;;4994454;28;20046;-81
2023/06/19 05:22:37;;;;;;;27.65;10.88;;;16.00;99.90;;;;;;4994733;28;20034;-81
2023/06/19 05:27:49;;;;;;;30.70;11.75;;;16.20;99.90;;;;;;4995650;28;20077;-82
2023/06/19 05:30:16;;;;;;;31.95;11.80;;;16.30;99.90;;;;;;4995153;28;20074;-83
2023/06/19 05:32:43;;;;;;;30.40;11.55;;;16.50;99.90;;;;;;4995330;28;20038;-83
2023/06/19 05:38:13;;;;;;;26.95;11.27;;;16.70;99.90;;;;;;4994665;28;20038;-82
2023/06/19 05:40:40;;;;;;;30.98;11.80;;;16.80;99.90;;;;;;4995441;28;20153;-83
2023/06/19 05:43:06;;;;;;;29.92;11.52;;;16.90;99.90;;;;;;4995184;28;20042;-82
2023/06/19 05:45:33;;;;;;;27.25;11.07;;;17.00;99.90;;;;;;4993630;28;20074;-81
2023/06/19 05:48:00;;;;;;;24.50;9.73;;;17.10;99.90;;;;;;4994268;28;20054;-81
2023/06/19 05:50:27;;;;;;;26.48;11.00;;;17.20;99.90;;;;;;4993298;28;20448;-82
2023/06/19 05:52:54;;;;;;;26.92;10.43;;;17.20;99.90;;;;;;4994974;28;20054;-82
2023/06/19 05:55:22;;;;;;;30.08;11.63;;;17.30;99.90;;;;;;4994116;28;20073;-83
2023/06/19 05:57:48;;;;;;;24.58;10.88;;;17.40;99.90;;;;;;4994361;28;20039;-83
2023/06/19 06:00:15;;;;;;;25.23;10.98;;;17.50;99.90;;;;;;5008687;28;20484;-83
2023/06/19 06:02:42;;;;;;;24.90;11.82;;;17.60;99.90;;;;;;4976100;28;20496;-82
2023/06/19 06:07:56;;;;;;;24.75;9.52;;;17.80;99.90;;;;;;4958941;28;20059;-82
2023/06/19 06:10:22;;;;;;;23.15;10.25;;;17.80;99.90;;;;;;4957734;28;20081;-83
2023/06/19 06:12:50;;;;;;;27.08;10.93;;;17.90;99.90;;;;;;4978706;28;20053;-83
2023/06/19 06:15:18;;;;;;;23.75;10.13;;;17.90;99.90;;;;;;4979251;28;20066;-82
2023/06/19 06:17:46;;;;;;;20.08;9.93;;;18.00;99.90;;;;;;4978538;28;20106;-82
2023/06/19 06:20:13;;;;;;;24.33;10.27;;;18.10;99.90;;;;;;4979196;28;20043;-83
2023/06/19 06:22:40;;;;;;;26.70;9.23;;;18.20;99.90;;;;;;4962595;28;20051;-83
2023/06/19 06:25:10;;;;;;;20.05;9.40;;;18.40;99.90;;;;;;4961365;28;20414;-85
2023/06/19 06:27:39;;;;;;;21.23;9.02;;;18.30;99.90;;;;;;4968489;28;20473;-87
2023/06/19 06:30:06;;;;;;;23.20;9.07;;;18.40;99.90;;;;;;4997907;28;20108;-84
2023/06/19 06:32:33;;;;;;;22.30;9.27;;;18.50;99.90;;;;;;4985985;28;20081;-83
2023/06/19 06:37:46;;;;;;;20.63;8.95;;;18.70;99.90;;;;;;4984746;28;20100;-83
2023/06/19 06:40:16;;;;;;;19.30;9.23;;;18.80;99.90;;;;;;4998474;28;20093;-82
2023/06/19 06:42:42;;;;;;;21.00;9.75;;;19.00;99.90;;;;;;4994047;28;20105;-83
2023/06/19 06:47:39;;;;;;;18.77;9.15;;;19.10;99.90;;;;;;4986750;28;20034;-84
2023/06/19 06:50:06;;;;;;;19.85;8.38;;;19.00;99.90;;;;;;4984993;28;20035;-82
2023/06/19 06:52:33;;;;;;;19.92;7.72;;;19.00;99.90;;;;;;4995802;28;20146;-83
2023/06/19 06:57:46;;;;;;;16.90;7.97;;;19.20;99.90;;;;;;4997328;28;20057;-83
2023/06/19 07:00:13;;;;;;;17.15;7.60;;;19.40;99.90;;;;;;4965237;28;20054;-86
2023/06/19 07:02:40;;;;;;;14.90;7.22;;;19.50;99.90;;;;;;4977117;28;20428;-85
2023/06/19 07:05:08;;;;;;;17.90;7.32;;;19.50;99.90;;;;;;4960433;28;20047;-83
2023/06/19 07:07:35;;;;;;;16.45;6.97;;;19.60;99.90;;;;;;4978564;28;20050;-82
2023/06/19 07:10:02;;;;;;;16.45;7.45;;;19.70;99.90;;;;;;4977295;28;20425;-83
2023/06/19 07:12:28;;;;;;;17.63;7.45;;;19.70;99.90;;;;;;4977433;28;20453;-83
2023/06/19 07:14:55;;;;;;;16.83;7.60;;;19.80;99.90;;;;;;4977993;28;20042;-82
2023/06/19 07:17:22;;;;;;;18.23;7.82;;;19.90;99.90;;;;;;4972133;28;20050;-80
2023/06/19 07:19:49;;;;;;;17.20;8.30;;;20.00;99.90;;;;;;4997640;28;20038;-80
2023/06/19 07:22:16;;;;;;;16.77;7.10;;;20.10;99.90;;;;;;4997164;28;20047;-80
2023/06/19 07:24:44;;;;;;;18.60;7.88;;;20.20;99.90;;;;;;4996147;28;20104;-81
2023/06/19 07:27:10;;;;;;;20.98;7.53;;;20.20;99.90;;;;;;4996271;28;20108;-82
2023/06/19 07:29:37;;;;;;;20.92;7.72;;;20.20;99.90;;;;;;4995860;28;20042;-82
2023/06/19 07:32:04;;;;;;;16.98;7.05;;;20.20;99.90;;;;;;5008245;28;20453;-81
2023/06/19 07:34:33;;;;;;;31.98;7.22;;;20.50;99.90;;;;;;4991407;28;20039;-82
2023/06/19 07:37:00;;;;;;;14.38;7.35;;;20.90;99.90;;;;;;4991884;28;20034;-81
2023/06/19 07:39:26;;;;;;;18.75;8.60;;;21.10;99.90;;;;;;4977251;28;20046;-81
2023/06/19 07:41:53;;;;;;;17.35;7.60;;;21.20;99.90;;;;;;4977599;28;20800;-82
2023/06/19 07:44:21;;;;;;;18.30;8.60;;;21.40;99.90;;;;;;4976226;28;20082;-82
2023/06/19 07:46:48;;;;;;;14.48;6.85;;;21.40;99.90;;;;;;4984427;28;20056;-83
2023/06/19 07:49:15;;;;;;;20.17;7.65;;;21.50;99.90;;;;;;4979429;28;20046;-82
2023/06/19 07:51:41;;;;;;;14.05;6.15;;;21.40;99.90;;;;;;4977757;28;20046;-81
2023/06/19 07:54:08;;;;;;;20.77;6.65;;;21.30;99.90;;;;;;4995913;28;20491;-81
2023/06/19 07:56:35;;;;;;;13.68;6.22;;;21.10;99.90;;;;;;4996627;28;20054;-82
2023/06/19 07:59:01;;;;;;;16.85;6.65;;;20.90;99.90;;;;;;4995575;28;20042;-81
2023/06/19 08:01:31;;;;;;;12.70;5.93;;;21.10;99.90;;;;;;4996401;28;20042;-81
2023/06/19 08:03:58;;;;;;;17.13;6.18;;;21.20;99.90;;;;;;4987124;28;20050;-80
2023/06/19 08:06:25;;;;;;;16.48;6.50;;;21.30;99.90;;;;;;4995876;28;20101;-80
2023/06/19 08:08:52;;;;;;;15.52;6.03;;;21.50;99.90;;;;;;4995521;28;20070;-81
2023/06/19 08:11:19;;;;;;;17.40;5.72;;;21.70;99.90;;;;;;4990949;28;20066;-82
2023/06/19 08:13:45;;;;;;;12.10;4.80;;;21.90;99.90;;;;;;4976536;28;20039;-82
2023/06/19 08:16:12;;;;;;;12.23;5.30;;;21.60;99.90;;;;;;4991746;28;20049;-82
2023/06/19 08:18:39;;;;;;;16.63;6.13;;;21.50;99.90;;;;;;4991107;28;20081;-82
2023/06/19 08:21:06;;;;;;;14.63;6.03;;;21.70;99.90;;;;;;4984682;28;20046;-82
2023/06/19 08:23:32;;;;;;;13.35;5.05;;;21.70;99.90;;;;;;5006370;28;20444;-84
2023/06/19 08:26:02;;;;;;;15.98;5.25;;;21.90;99.90;;;;;;4999588;28;20491;-83
2023/06/19 08:28:28;;;;;;;11.15;4.82;;;22.20;99.90;;;;;;5009201;28;20046;-83
2023/06/19 08:30:55;;;;;;;9.95;4.82;;;22.30;99.90;;;;;;5009928;28;20138;-83
2023/06/19 08:33:22;;;;;;;11.05;4.82;;;22.10;99.90;;;;;;4994790;28;20093;-82
2023/06/19 08:35:50;;;;;;;13.35;4.55;;;22.20;99.90;;;;;;5010625;28;20047;-83
2023/06/19 08:38:17;;;;;;;11.80;4.93;;;22.10;99.90;;;;;;4995173;28;20038;-83
2023/06/19 08:40:44;;;;;;;11.43;4.22;;;22.10;99.90;;;;;;4996007;28;20066;-82
2023/06/19 08:43:10;;;;;;;12.30;4.35;;;21.90;99.90;;;;;;4995311;28;20038;-82
2023/06/19 08:45:38;;;;;;;11.63;4.60;;;21.90;99.90;;;;;;4979245;28;20481;-81
2023/06/19 08:48:08;;;;;;;10.40;4.28;;;22.20;99.90;;;;;;4975264;28;20051;-83
2023/06/19 08:50:39;;;;;;;12.38;4.20;;;22.70;99.90;;;;;;4987631;28;20043;-82
2023/06/19 08:53:06;;;;;;;12.23;3.95;;;23.10;99.90;;;;;;4974917;28;20049;-82
2023/06/19 08:55:35;;;;;;;14.65;4.85;;;23.00;99.90;;;;;;4984233;28;20042;-83
2023/06/19 08:58:02;;;;;;;9.70;4.50;;;22.90;99.90;;;;;;5010484;28;20141;-83
2023/06/19 09:00:28;;;;;;;17.77;5.40;;;23.00;99.90;;;;;;4995289;28;20043;-83
2023/06/19 09:02:58;;;;;;;13.57;4.60;;;23.00;99.90;;;;;;4994324;28;20508;-83
2023/06/19 09:05:38;;;;;;;11.93;4.60;;;22.90;99.90;;;;;;5007719;28;20061;-83
2023/06/19 09:08:05;;;;;;;10.43;4.63;;;22.80;99.90;;;;;;5010626;28;20077;-83
2023/06/19 09:10:35;;;;;;;11.50;4.53;;;22.60;99.90;;;;;;5009851;28;20045;-84
2023/06/19 09:13:02;;;;;;;12.25;5.22;;;22.50;99.90;;;;;;5010614;28;20527;-83
2023/06/19 09:15:31;;;;;;;12.25;3.83;;;22.60;99.90;;;;;;5010514;28;20038;-83
2023/06/19 09:17:59;;;;;;;11.35;4.00;;;22.80;99.90;;;;;;4993461;28;20117;-84
2023/06/19 09:20:26;;;;;;;11.77;4.20;;;23.20;99.90;;;;;;4995126;28;20512;-83
2023/06/19 09:22:53;;;;;;;12.13;4.75;;;23.30;99.90;;;;;;4993740;28;20453;-84
2023/06/19 09:25:23;;;;;;;12.07;4.97;;;23.20;99.90;;;;;;5009903;28;20515;-83
2023/06/19 09:27:50;;;;;;;9.48;4.28;;;23.30;99.90;;;;;;5010406;28;20350;-83
2023/06/19 09:30:17;;;;;;;11.70;4.60;;;23.40;99.90;;;;;;5010022;28;20065;-84
2023/06/19 09:32:45;;;;;;;12.25;5.13;;;23.50;99.90;;;;;;5010276;28;20112;-83
2023/06/19 09:35:12;;;;;;;11.90;5.70;;;23.60;99.90;;;;;;5010343;28;20109;-83
2023/06/19 09:37:40;;;;;;;13.70;4.63;;;23.70;99.90;;;;;;4994251;28;20042;-83
2023/06/19 09:40:10;;;;;;;9.40;4.95;;;23.80;99.90;;;;;;5010484;28;20500;-84
2023/06/19 09:42:37;;;;;;;12.63;4.57;;;23.70;99.90;;;;;;4994768;28;20109;-84
2023/06/19 09:48:09;;;;;;;13.93;4.50;;;23.50;99.90;;;;;;4998849;28;20034;-81
2023/06/19 09:50:49;;;;;;;10.27;4.57;;;23.30;99.90;;;;;;5013387;28;20048;-81
2023/06/19 09:53:15;;;;;;;12.45;4.47;;;23.50;99.90;;;;;;5013855;28;20053;-81
2023/06/19 09:55:44;;;;;;;10.82;4.70;;;23.50;99.90;;;;;;5013694;28;20038;-81
2023/06/19 09:58:11;;;;;;;12.25;4.00;;;23.70;99.90;;;;;;5013780;28;20080;-81
2023/06/19 10:00:38;;;;;;;11.40;4.93;;;23.60;99.90;;;;;;4999625;28;20138;-81
2023/06/19 10:03:05;;;;;;;12.20;4.15;;;23.60;99.90;;;;;;5013730;28;20050;-81
2023/06/19 10:05:32;;;;;;;10.57;4.47;;;24.00;99.90;;;;;;4997392;28;20058;-81
2023/06/19 10:08:00;;;;;;;13.00;5.38;;;24.20;99.90;;;;;;4997551;28;20101;-81
2023/06/19 10:10:27;;;;;;;12.50;5.05;;;24.10;99.90;;;;;;4996574;28;20043;-81
2023/06/19 10:12:58;;;;;;;11.52;5.55;;;24.10;99.90;;;;;;4998387;28;20380;-81
2023/06/19 10:15:25;;;;;;;14.65;4.95;;;23.90;99.90;;;;;;4998252;28;20523;-82
2023/06/19 10:17:52;;;;;;;11.60;4.18;;;23.90;99.90;;;;;;4996279;28;20101;-82
2023/06/19 10:20:19;;;;;;;12.48;4.45;;;24.00;99.90;;;;;;4997929;28;20050;-82
2023/06/19 10:22:45;;;;;;;10.25;4.80;;;24.20;99.90;;;;;;4998056;28;20469;-82
2023/06/19 10:25:12;;;;;;;9.32;3.47;;;24.10;99.90;;;;;;4997274;28;20097;-80
2023/06/19 10:27:39;;;;;;;10.50;4.50;;;24.40;99.90;;;;;;4997492;28;20050;-79
2023/06/19 10:30:07;;;;;;;9.95;4.80;;;24.60;99.90;;;;;;4980882;28;20050;-81
2023/06/19 10:32:53;;;;;;;9.25;4.50;;;25.20;99.90;;;;;;4989995;28;20122;-80
2023/06/19 10:35:24;;;;;;;10.98;3.90;;;25.50;99.90;;;;;;4981207;28;20073;-80
2023/06/19 10:37:51;;;;;;;13.05;5.13;;;25.70;99.90;;;;;;4997071;28;20129;-80
2023/06/19 10:40:18;;;;;;;8.73;4.40;;;26.10;99.90;;;;;;4998349;28;20054;-80
2023/06/19 10:42:44;;;;;;;9.32;4.60;;;26.10;99.90;;;;;;4981527;28;20101;-79
2023/06/19 10:45:17;;;;;;;8.35;4.20;;;26.50;99.90;;;;;;4977589;28;20043;-80
2023/06/19 10:47:44;;;;;;;10.25;4.07;;;27.00;99.90;;;;;;4978424;28;20054;-81
2023/06/19 10:50:12;;;;;;;8.50;4.43;;;27.00;99.90;;;;;;4982451;28;20039;-83
2023/06/19 10:52:39;;;;;;;7.60;4.13;;;26.90;99.90;;;;;;4997251;28;20044;-83
2023/06/19 10:55:07;;;;;;;8.20;4.13;;;26.80;99.90;;;;;;4980458;28;20042;-79
2023/06/19 10:57:34;;;;;;;10.23;4.40;;;26.80;99.90;;;;;;4995947;28;20438;-81
2023/06/19 11:00:00;;;;;;;9.18;4.40;;;27.00;99.90;;;;;;4980394;28;20442;-80
2023/06/19 11:02:27;;;;;;;9.70;4.20;;;26.90;99.90;;;;;;4996695;28;20618;-80
2023/06/19 11:04:54;;;;;;;10.20;4.78;;;26.60;99.90;;;;;;4996832;28;20049;-80
2023/06/19 11:07:21;;;;;;;11.43;4.32;;;26.90;99.90;;;;;;4997380;28;20038;-80
2023/06/19 11:09:47;;;;;;;10.45;4.15;;;26.90;99.90;;;;;;4997426;28;20100;-81
2023/06/19 11:12:14;;;;;;;9.60;4.22;;;26.80;99.90;;;;;;4981810;28;20051;-81
2023/06/19 11:17:10;;;;;;;8.95;4.00;;;26.40;99.90;;;;;;4977301;28;20531;-81
2023/06/19 11:19:40;;;;;;;11.10;4.57;;;26.30;99.90;;;;;;4978131;28;20046;-79
2023/06/19 11:22:07;;;;;;;9.48;4.32;;;26.50;99.90;;;;;;4977987;28;20342;-81
2023/06/19 11:24:35;;;;;;;11.40;4.45;;;26.40;99.90;;;;;;4959941;28;20047;-80
2023/06/19 11:27:02;;;;;;;9.95;4.40;;;26.80;99.90;;;;;;4978040;28;20053;-82
2023/06/19 11:29:29;;;;;;;9.50;4.47;;;27.50;99.90;;;;;;4960559;28;20546;-80
2023/06/19 11:31:56;;;;;;;8.05;4.70;;;27.80;99.90;;;;;;4977072;28;20050;-79
2023/06/19 11:34:23;;;;;;;9.32;4.13;;;27.60;99.90;;;;;;4977216;28;20050;-79
2023/06/19 11:36:52;;;;;;;11.32;4.38;;;27.60;99.90;;;;;;4977502;28;20038;-81
2023/06/19 11:39:19;;;;;;;10.80;4.95;;;27.30;99.90;;;;;;4976838;28;20066;-81
2023/06/19 11:41:46;;;;;;;10.55;5.50;;;27.90;99.90;;;;;;4960929;28;20389;-82
2023/06/19 11:47:00;;;;;;;9.93;4.78;;;28.80;99.90;;;;;;4977408;28;20122;-81
2023/06/19 11:49:28;;;;;;;9.15;4.10;;;28.30;99.90;;;;;;4966728;28;20043;-81
2023/06/19 11:51:55;;;;;;;9.00;4.13;;;28.40;99.90;;;;;;4994796;28;20117;-81
2023/06/19 11:54:24;;;;;;;7.82;4.18;;;29.00;99.90;;;;;;4995596;28;20039;-82
2023/06/19 11:56:50;;;;;;;11.80;4.40;;;29.20;99.90;;;;;;4996968;28;20034;-82
2023/06/19 11:59:17;;;;;;;7.95;4.10;;;29.40;99.90;;;;;;4995653;28;20066;-82
2023/06/19 12:01:44;;;;;;;10.40;4.40;;;29.30;99.90;;;;;;4996603;28;20046;-82
2023/06/19 12:04:11;;;;;;;9.43;4.30;;;29.40;99.90;;;;;;4995919;28;20424;-81
2023/06/19 12:06:39;;;;;;;10.88;3.83;;;29.70;99.90;;;;;;4996248;28;20125;-82
2023/06/19 12:09:05;;;;;;;7.72;3.80;;;29.50;99.90;;;;;;4995641;28;20069;-81
2023/06/19 12:11:32;;;;;;;9.10;4.30;;;29.00;99.90;;;;;;4995576;28;20046;-82
2023/06/19 12:13:59;;;;;;;10.35;3.78;;;28.70;99.90;;;;;;4980657;28;20050;-82
2023/06/19 12:18:57;;;;;;;9.55;4.30;;;27.80;99.90;;;;;;4995621;28;20073;-81
2023/06/19 12:21:23;;;;;;;8.93;4.10;;;28.00;99.90;;;;;;4996061;28;20038;-81
2023/06/19 12:24:03;;;;;;;8.98;3.85;;;28.60;99.90;;;;;;4995251;28;20038;-81
2023/06/19 12:26:30;;;;;;;8.77;3.97;;;28.70;99.90;;;;;;4996047;28;20038;-81
2023/06/19 12:28:57;;;;;;;8.20;3.90;;;28.30;99.90;;;;;;4995970;28;20038;-81
2023/06/19 12:31:23;;;;;;;9.18;3.40;;;28.70;99.90;;;;;;4995128;28;20038;-81
2023/06/19 12:33:50;;;;;;;9.10;3.63;;;28.90;99.90;;;;;;4978735;28;20389;-81
2023/06/19 12:36:17;;;;;;;9.27;3.50;;;29.30;99.90;;;;;;4978514;28;20043;-81
2023/06/19 12:38:44;;;;;;;8.07;3.40;;;29.60;99.90;;;;;;4995536;28;20057;-81
2023/06/19 12:41:10;;;;;;;7.78;3.20;;;29.70;99.90;;;;;;4995957;28;20070;-81
2023/06/19 12:43:37;;;;;;;8.13;3.10;;;29.80;99.90;;;;;;4995144;28;20046;-80
2023/06/19 12:46:05;;;;;;;9.15;3.63;;;29.90;99.90;;;;;;4995662;28;20483;-81
2023/06/19 12:48:32;;;;;;;6.53;3.13;;;30.40;99.90;;;;;;4995121;28;20129;-81
2023/06/19 12:50:58;;;;;;;8.88;3.60;;;30.40;99.70;;;;;;4994622;28;20081;-81
2023/06/19 12:53:29;;;;;;;10.52;3.40;;;30.30;99.60;;;;;;4978427;28;20080;-81
2023/06/19 12:55:57;;;;;;;;;;;30.60;98.60;;;;;;4996057;28;20056;-81
2023/06/19 12:58:28;;;;;;;9.88;3.35;;;30.50;98.80;;;;;;4994618;28;19956;-82
2023/06/19 13:00:55;;;;;;;10.13;3.42;;;30.30;97.40;;;;;;4977965;28;20137;-82
2023/06/19 13:03:21;;;;;;;12.18;3.42;;;30.10;96.60;;;;;;4995381;28;20042;-82
2023/06/19 13:05:49;;;;;;;13.30;4.03;;;30.10;96.90;;;;;;4961039;28;20047;-82
2023/06/19 13:08:15;;;;;;;15.35;3.50;;;30.10;96.20;;;;;;4984265;28;20464;-82
2023/06/19 13:10:42;;;;;;;12.60;3.72;;;30.10;97.60;;;;;;4977457;28;20074;-81
2023/06/19 13:13:10;;;;;;;8.55;3.10;;;30.60;97.10;;;;;;4994780;28;20074;-83
2023/06/19 13:15:39;;;;;;;7.53;2.78;;;30.40;95.60;;;;;;4978483;28;20105;-81
2023/06/19 13:18:06;;;;;;;9.23;3.08;;;30.50;95.00;;;;;;4994745;28;20046;-82
2023/06/19 13:20:33;;;;;;;7.75;2.83;;;30.30;94.20;;;;;;4995233;28;20073;-81
2023/06/19 13:22:59;;;;;;;8.18;3.08;;;30.20;95.20;;;;;;4978129;28;20050;-81
2023/06/19 13:25:26;;;;;;;7.32;2.83;;;30.30;94.60;;;;;;4994790;28;20446;-80
2023/06/19 13:27:53;;;;;;;6.70;2.45;;;30.30;93.90;;;;;;4995053;28;20109;-81